BFIBOEING FIELD/KING COUNTY INTL
METARs for nearby airports:
N 0 21' KBFI 211253Z 21005KT 10SM OVC020 16/12 A3008
SE 4 32' KRNT 211253Z 18006KT 10SM OVC020 16/12 A3008
S 4 432' KSEA 211253Z 20007KT 10SM FEW010 OVC014 15/12 A3009
W 18 444' KPWT 211305Z 20009KT 10SM OVC008 13/12 A3008
SW 19 294' KTIW 211253Z 18004KT 10SM OVC013 14/12 A3008
N 22 607' KPAE 211253Z 16013KT 10SM OVC013 15/12 A3008
S 24 322' KTCM 211333Z 23007KT 10SM SCT007 OVC017 14/14 A3010
S 25 537' KPLU 211335Z 24005KT 9SM OVC010 15/14 A3010
S 29 300' KGRF 211258Z 20004KT 4SM BR OVC005 14/14 A3008
N 38 141' KAWO 211308Z 18008KT 10SM OVC016 16/13 A3008
SW 38 272' KSHN 211253Z 21008KT 10SM BKN010 OVC014 14/12 A3005
SW 41 207' KOLM 211254Z 24007KT 10SM OVC020 14/11 A3009
N 51 47' KNUW 211256Z 23004KT 10SM BKN012 OVC030 14/12 A3010
N 56 145' KBVS 211335Z 00000KT 10SM OVC012 14/12 A3007
NW 57 13' KNOW 211315Z 29007KT 10SM OVC011 13/11 A3007
SW 58 177' KCLS 211335Z 23004KT 10SM OVC023 15/13 A3011
NW 59 291' KCLM 211253Z 30006KT 10SM OVC008 12/11 A3007
NW 66 112' KFHR 211312Z 19009KT 10SM BKN016 13/11 A3006
SW 74 17' KHQM 211311Z 24006KT 8SM OVC016 15/13 A3010
N 74 34' KORS 211335Z 17013G19KT 10SM OVC011 15/12 A3001
N 76 171' KBLI 211331Z 16012G19KT 10SM -RA OVC009 14/12 A3003
E 78 1763' KELN 211253Z 33017KT 10SM CLR 19/13 A2994
NW 80 64' CYYJ 211300Z 14004KT 30SM FEW010 FEW100 SCT240 13/11 A2999
E 85 1248' KEAT 211255Z 28007KT 10SM CLR 19/11 A2990
S 88 20' KKLS 211322Z VRB03KT 9SM OVC009 14/13 A3012
SE 92 1098' KYKM 211253Z VRB05KT 10SM FEW100 15/12 A2992
W 94 193' KUIL 211311Z 26003KT 10SM OVC015 13/11 A3010
TAFs for nearby airports:
N 0 21' KBFI KBFI 211130Z 2112/2212 18010KT P6SM OVC015
  FM211900 18008KT P6SM OVC024
  FM212100 18008KT P6SM SCT045 BKN150
  FM220700 18008KT P6SM OVC025
S 4 432' KSEA KSEA 211130Z 2112/2218 21010KT P6SM OVC009
  FM211300 21010KT P6SM OVC012
  FM211900 21010KT P6SM OVC020
  FM212100 21008KT P6SM SCT040 BKN150
  FM220700 18008KT P6SM OVC020
W 18 444' KPWT TAF KPWT 211130Z 2112/2212 20010KT P6SM OVC011
  FM211900 20010KT P6SM OVC020
  FM212100 20008KT P6SM SCT040 BKN150
  FM220600 18008KT P6SM OVC018
N 22 607' KPAE KPAE 211130Z 2112/2212 18010KT P6SM OVC010
  FM211700 18008KT P6SM OVC015
  FM211900 18008KT P6SM OVC020
  FM212100 18008KT P6SM SCT035 BKN150
  FM220700 18008KT P6SM OVC020
S 24 322' KTCM TAF KTCM 211408Z 2113/2219 21006KT 9999 BKN007 QNH3002INS
  TEMPO 2113/2117 19009KT 6000 BR BKN010 BKN060
  BECMG 2117/2118 25012KT 9999 BKN020 QNH3007INS
  BECMG 2121/2122 22012KT 9999 BKN030 QNH3009INS
  BECMG 2205/2206 22006KT 9999 BKN015 QNH3011INS
  BECMG 2208/2209 22006KT 9999 BKN007 QNH3012INS TX19/2200Z TN12/2212Z
S 29 300' KGRF TAF KGRF 211408Z 2113/2219 18006KT 6000 BR BKN005 QNH3002INS
  TEMPO 2113/2117 19009KT 8000 BR BKN007 BKN060
  BECMG 2117/2118 22012KT 9999 NSW BKN020 QNH3007INS
  BECMG 2121/2122 22012KT 9999 BKN030 QNH3009INS
  BECMG 2205/2206 19006KT 9999 BKN015 QNH3011INS
  BECMG 2208/2209 19006KT 9999 BKN007 QNH3012INS TX19/2200Z TN12/2212Z
SW 41 207' KOLM TAF KOLM 211130Z 2112/2212 22008KT P6SM OVC015
  FM211900 22008KT P6SM OVC022
  FM212100 22008KT P6SM SCT035 BKN150
  FM220600 22008KT P6SM OVC020
N 51 47' KNUW TAF TAF
  AMD KNUW 2111/2207 24008KT 9999 SCT006 BKN015 OVC110 QNH2993INS
  FM211500 22011KT 6000 BR SCT005 BKN012 BKN250 QNH3002INS
  TEMPO 2115/2118 BKN005 OVC010
  BECMG 2120/2122 22008KT 9999 FEW012 SCT020 SCT250 QNH3004INS T13/2112Z T19/2123Z
  AMD 1150 FS30018
NW 59 291' KCLM TAF KCLM 211130Z 2112/2212 29010KT P6SM BKN006 OVC012
  FM211400 29008KT P6SM SCT008 OVC015
  FM211800 29008KT P6SM OVC025
  FM212000 29008KT P6SM SCT035 BKN150
  FM220500 29012KT P6SM OVC020
SW 74 17' KHQM KHQM 211130Z 2112/2212 24010KT P6SM OVC015
  FM211900 24010KT P6SM OVC022
  FM220400 24010KT P6SM OVC015
N 76 171' KBLI TAF COR KBLI 211143Z 2112/2212 16015G25KT P6SM OVC015
  FM211600 18012KT P6SM OVC015
  FM211900 18012KT P6SM BKN025
  FM212100 18010KT P6SM SCT040 BKN150
  FM220900 18010KT P6SM OVC025
E 85 1248' KEAT KEAT 211148Z 2112/2212 32009KT P6SM FEW100 SCT250
  FM212100 31016G24KT P6SM FEW250
  FM220500 30014KT P6SM SKC
SE 92 1098' KYKM TAF KYKM 211120Z 2112/2212 27005KT P6SM SCT120
  FM212000 30008G15KT P6SM SCT150
  FM220600 33008G15KT P6SM SCT200
Area forecast:
000
FAUS46 KKCI 101945
FA6W  
SFOC FA 101945
SYNOPSIS AND VFR CLDS/WX
SYNOPSIS VALID UNTIL 111400
CLDS/WX VALID UNTIL 110800...OTLK VALID 110800-111400
WA OR CA AND CSTL WTRS
.
SEE AIRMET SIERRA FOR IFR CONDS AND MTN OBSCN.
TS IMPLY SEV OR GTR TURB SEV ICE LLWS AND IFR CONDS.
NON MSL HGTS DENOTED BY AGL OR CIG.
.
SYNOPSIS...UPR LVL TROF WAS LOCATED NR 130W. MOIST SWLY FLOW
EXTDS FROM PAC NW EWD INTO NRN ROCKIES. HIGH PRES RIDGE WAS OVR
MUCH OF THE REST OF THE AREA. BY 14Z...UPR LVL TROF WILL EXTD
FROM WA-OR SWD INTO CA.  ..STREIB..
.
WA CASCDS WWD
CSTL SXNS
CSTLN-INLAND...SCT-BKN025 BKN035-050 TOPS 120-140. ISOL -SHRA.
   OTLK...MVFR CIGS SHRA BR.
PUGET SOUND-INTR VLY...SCT-BKN020 BKN-OVC035-050 TOPS 160 BKN CI.
   WDLY SCT -SHRA. OTLK...MVFR CIGS SHRA.
CASCDS...BKN-OVC050-070 TOPS FL180. BKN CI ABV. WDLY SCT -SHRA.
   OTLK...MVFR CIGS SHRA.
.
WA E OF CASCDS
CNTRL WA...SCT140 OVC CI. BECMG 2302 SCT080 BKN120 LYRD FL240.
   OTLK...VFR.
ERN WA...SCT-BKN140-160 LYRD FL240. BECMG 0508 BKN080 OVC120
   LYRD FL240 ISOL -SHRA DVLPG. OTLK...VFR.
.
OR CASCDS WWD
CSTL SXNS
CSTLN-INLAND...SCT-BKN020 BKN-OVC035-050 TOPS FL180. WDLY SCT
   -SHRA. OTLK...MVFR CIGS SHRA.
WILLAMETTE VLY/SWRN INTR...SCT-BKN020 BKN-OVC035-050 TOPS FL180.
   WDLY SCT -SHRA. OTLK...MVFR CIGS SHRA.
CASCDS...SCT-BKN060 BKN-OVC080-100 TOPS FL180 ISOL -SHRA.
   OTLK...MVFR CIGS SHRA.
.
OR E OF CASCDS
CNTRL...SCT100-120 BKN150 LYRD FL240. OTLK...VFR.
ERN...SCT130-150 BKN CI. BECMG 0205 OVC120-140 LYRD FL240.
   OTLK...VFR.
.
NRN CA...STS-SAC-TVL LN NWD
CSTL SXNS...
   FOT NWD...SCT025 BKN CI ABV. BECMG 0205 SCT020 OVC050 TOPS
      160. ISOL -SHRA. OTLK...IFR CIGS.
   S OF FOT...SCT-BKN010 TOPS 030-040. OTLK...IFR CIGS.
REST OF AREA...SKC OCNL SCT CI. OCNL VYS 3-5SM FU HZ.
   OTLK...VFR.
SAC VLY...
   NRN AND CNTRL SXNS...SKC. OTLK...VFR.
   SRN SXNS...SKC. OCNL VIS 3-5SM FU HZ. OTLK...MVFR FU HZ.
SHASTA-SISKIYOUS-NERN CA...
NRN SIERRAS...SKC OCNL SCT CI. WINDS SLY G25KT. OTLK...VFR WIND.
.
CNTRL CA
CSTL SXNS...
   CSTLN...SKC OCNL SCT010. BECMG 0508 OCNL CIGS BKN-SCT010 TOPS
      020-030. OTLK...IFR CIGS.
   INLAND...SKC. OTLK...VFR BECMG 1114 IFR CIGS BR.
SAN JOAQUIN VLY...SKC. OTLK...VFR.
SRN SIERRAS..SKC. OTLK...VFR.
.
SRN CA..VBG-NID-60NNW BIH LN SWD
CSTL SXNS...
   CSTLN...
      EXTRM SRN SXNS...SKC. BECMG 0205 SCT010. BECMG 0508 CIGS
         BKN-OVC010 TOPS 030. OTLK...IFR CIGS.
      REST OF AREA...SKC. OTLK...VFR BECMG 0811 IFR CIGS BR.
   INLAND...SKC OCNL FEW CI. OTLK...VFR.
INTR MTNS-MOJAVE-SRN DESERTS...SKC OCNL FEW CI. OTLK...VFR.
.
CSTL WTRS
WA...SCT-BKN035-050 TOPS 100-120. ISOL -SHRA. OTLK...VFR.
OR...
NWRN HLF...SCT-BKN035-050 TOPS 100-120. ISOL -SHRA. OTLK...VFR.
SERN HLF...SCT-BKN025 BKN035-050 TOPS FL180 BKN CI ABV. WDLY SCT
   -SHRA. OTLK...MVFR CIGS SHRA.
CA...
NRN CA...
   FOT NWD...SCT025 BKN CI ABV. BECMG 0205 SCT020 OVC050 TOPS
      160. ISOL -SHRA. OTLK...IFR CIGS.
   S OF FOT...SCT-BKN010 TOPS 030-040. OTLK...IFR CIGS.
CNTRL CA...SCT-BKN010 TOPS 030-040. OTLK...IFR CIGS.
SRN CA...
   OUTER CSTL WTRS...CIGS BKN010-020 TOPS 030-050.
      OTLK...IFR CIGS.
   ADJ CSTL WTRS...SKC. OCNL AGL SCT010. OTLK...VFR BECMG 0811
      IFR CIGS BR.
.
THE AREA FORECAST WILL TERMINATE AT 2359Z ON 10 OCTOBER 2017. IN
PLACE OF THE AREA FORECAST...PLEASE SEE THE GRAPHICAL FORECAST AT
WWW.AVIATIONWEATHER.GOV/GFA. GRAPHICAL AND TEXT AIRMETS WILL
CONTINUE AS REGULARLY SCHEDULED.
....

Shortcut to this page: http://wxbay.com.

Data may contain errors.